Time;durP1;ratioP1;P1;durP2;ratioP2;P2;SDS_P1;SDS_P2;PMS_P1;PMS_P2;Temp;Humidity;BMP_temperature;BMP_pressure;BME280_temperature;BME280_humidity;BME280_pressure;Samples;Min_cycle;Max_cycle;Signal;HPM_P1;HPM_P2
2023/06/24 00:00:06;;;;;;;9.73;6.23;;;17.70;99.90;;;;;;5073467;28;20175;-44
2023/06/24 00:02:35;;;;;;;10.47;6.20;;;17.70;99.90;;;;;;5073817;28;20605;-42
2023/06/24 00:05:03;;;;;;;7.60;5.70;;;17.70;99.90;;;;;;5073353;28;20195;-43
2023/06/24 00:07:28;;;;;;;7.13;5.80;;;17.60;99.90;;;;;;5055347;28;20180;-41
2023/06/24 00:09:54;;;;;;;10.00;6.20;;;17.60;99.90;;;;;;5073588;28;20183;-42
2023/06/24 00:12:20;;;;;;;9.17;6.13;;;17.60;99.90;;;;;;5073385;28;20176;-44
2023/06/24 00:14:47;;;;;;;9.27;6.37;;;17.50;99.90;;;;;;5073166;28;20207;-41
2023/06/24 00:17:13;;;;;;;9.27;6.07;;;17.50;99.90;;;;;;5073580;28;20180;-43
2023/06/24 00:19:39;;;;;;;8.27;6.53;;;17.40;99.90;;;;;;5077341;28;20515;-42
2023/06/24 00:22:06;;;;;;;13.90;6.70;;;17.40;99.90;;;;;;5059878;28;20218;-41
2023/06/24 00:24:32;;;;;;;9.73;6.57;;;17.40;99.90;;;;;;5077196;28;20557;-41
2023/06/24 00:26:57;;;;;;;8.87;6.33;;;17.40;99.90;;;;;;5077303;28;20186;-40
2023/06/24 00:29:23;;;;;;;13.40;7.27;;;17.40;99.90;;;;;;5077422;28;20267;-42
2023/06/24 00:31:48;;;;;;;8.77;6.23;;;17.40;99.90;;;;;;5077081;28;20178;-42
2023/06/24 00:34:14;;;;;;;11.63;6.17;;;17.30;99.90;;;;;;5077199;28;20218;-41
2023/06/24 00:36:40;;;;;;;6.73;6.03;;;17.30;99.90;;;;;;5077042;28;20222;-42
2023/06/24 00:39:06;;;;;;;10.10;6.70;;;17.30;99.90;;;;;;5076913;28;20538;-42
2023/06/24 00:41:33;;;;;;;10.90;6.40;;;17.30;99.90;;;;;;5077016;28;20168;-42
2023/06/24 00:43:59;;;;;;;11.27;5.90;;;17.30;99.90;;;;;;5076818;28;20194;-43
2023/06/24 00:46:25;;;;;;;8.30;5.90;;;17.20;99.90;;;;;;5076781;28;20258;-42
2023/06/24 00:48:53;;;;;;;14.30;6.70;;;17.20;99.90;;;;;;5058865;28;20596;-42
2023/06/24 00:51:21;;;;;;;8.80;5.80;;;17.20;99.90;;;;;;5076675;28;20183;-42
2023/06/24 00:53:47;;;;;;;9.57;6.07;;;17.20;99.90;;;;;;5076602;28;20195;-43
2023/06/24 00:56:14;;;;;;;13.33;6.50;;;17.10;99.90;;;;;;5076946;28;20199;-40
2023/06/24 00:58:42;;;;;;;11.57;6.47;;;17.10;99.90;;;;;;5077355;28;20222;-41
2023/06/24 01:01:08;;;;;;;12.03;6.30;;;17.10;99.90;;;;;;5077338;28;20184;-40
2023/06/24 01:03:36;;;;;;;17.17;6.23;;;17.10;99.90;;;;;;5076667;28;20171;-41
2023/06/24 01:06:03;;;;;;;10.90;6.03;;;17.10;99.90;;;;;;5058538;28;20176;-41
2023/06/24 01:08:28;;;;;;;14.10;6.00;;;17.10;99.90;;;;;;5076609;28;20713;-41
2023/06/24 01:10:54;;;;;;;8.23;6.23;;;17.00;99.90;;;;;;5076565;28;20202;-42
2023/06/24 01:13:20;;;;;;;7.50;6.00;;;17.00;99.90;;;;;;5076250;28;20202;-40
2023/06/24 01:15:46;;;;;;;6.40;5.70;;;17.00;99.90;;;;;;5076440;28;20215;-41
2023/06/24 01:18:23;;;;;;;9.67;5.67;;;17.00;99.90;;;;;;5076342;28;20187;-43
2023/06/24 01:21:01;;;;;;;10.43;6.33;;;16.90;99.90;;;;;;5076436;28;20254;-42
2023/06/24 01:23:50;;;;;;;8.83;5.23;;;16.90;99.90;;;;;;5076360;28;20186;-43
2023/06/24 01:26:41;;;;;;;12.33;7.10;;;16.90;99.90;;;;;;5076396;28;20202;-40
2023/06/24 01:29:45;;;;;;;12.30;6.80;;;16.90;99.90;;;;;;5074992;28;20176;-44
2023/06/24 01:32:27;;;;;;;15.37;6.83;;;16.90;99.90;;;;;;5076044;28;20550;-43
2023/06/24 01:34:57;;;;;;;16.83;6.77;;;16.80;99.90;;;;;;5076099;28;20206;-41
2023/06/24 01:37:42;;;;;;;14.73;6.47;;;16.80;99.90;;;;;;5076192;28;20171;-42
2023/06/24 01:40:28;;;;;;;13.77;7.00;;;16.80;99.90;;;;;;5076117;28;20167;-41
2023/06/24 01:42:57;;;;;;;13.17;6.90;;;16.80;99.90;;;;;;5076185;28;20548;-42
2023/06/24 01:45:28;;;;;;;14.83;6.53;;;16.80;99.90;;;;;;5075605;28;20206;-41
2023/06/24 01:48:02;;;;;;;12.10;6.30;;;16.70;99.90;;;;;;5075981;28;20168;-43
2023/06/24 01:50:32;;;;;;;13.20;6.30;;;16.70;99.90;;;;;;5076207;28;20159;-42
2023/06/24 01:53:01;;;;;;;11.67;6.13;;;16.70;99.90;;;;;;5076139;28;20168;-43
2023/06/24 01:55:29;;;;;;;12.17;6.77;;;16.60;99.90;;;;;;5075240;28;20328;-42
2023/06/24 01:57:56;;;;;;;17.53;6.40;;;16.60;99.90;;;;;;5057607;28;20176;-42
2023/06/24 02:00:24;;;;;;;18.37;6.70;;;16.60;99.90;;;;;;5075797;28;20197;-42
2023/06/24 02:02:51;;;;;;;11.53;5.90;;;16.50;99.90;;;;;;5075878;28;20172;-42
2023/06/24 02:05:18;;;;;;;16.43;7.20;;;16.50;99.90;;;;;;5075426;28;20199;-42
2023/06/24 02:07:47;;;;;;;15.23;7.37;;;16.50;99.90;;;;;;5057480;28;20632;-43
2023/06/24 02:10:14;;;;;;;18.17;7.10;;;16.50;99.90;;;;;;5075279;28;20237;-43
2023/06/24 02:12:41;;;;;;;19.30;6.43;;;16.50;99.90;;;;;;5075253;28;20538;-42
2023/06/24 02:15:09;;;;;;;15.60;6.70;;;16.40;99.90;;;;;;5074982;28;20211;-42
2023/06/24 02:17:35;;;;;;;19.77;7.40;;;16.40;99.90;;;;;;5075077;28;20668;-41
2023/06/24 02:20:01;;;;;;;16.40;6.30;;;16.40;99.90;;;;;;5075227;28;20236;-41
2023/06/24 02:22:28;;;;;;;10.53;6.00;;;16.40;99.90;;;;;;5075806;28;20172;-42
2023/06/24 02:24:54;;;;;;;15.40;6.87;;;16.30;99.90;;;;;;5076651;28;20191;-43
2023/06/24 02:27:21;;;;;;;12.47;6.53;;;16.30;99.90;;;;;;5057867;28;20647;-42
2023/06/24 02:29:47;;;;;;;15.23;6.53;;;16.30;99.90;;;;;;5075451;28;20543;-42
2023/06/24 02:32:13;;;;;;;15.33;6.80;;;16.20;99.90;;;;;;5075439;28;20385;-43
2023/06/24 02:34:39;;;;;;;17.27;6.43;;;16.20;99.90;;;;;;5076524;28;20288;-42
2023/06/24 02:37:05;;;;;;;14.03;6.33;;;16.20;99.90;;;;;;5075942;28;20196;-43
2023/06/24 02:39:31;;;;;;;15.70;6.80;;;16.20;99.90;;;;;;5074842;28;20316;-48
2023/06/24 02:41:56;;;;;;;13.60;6.23;;;16.20;99.90;;;;;;5074536;28;20168;-47
2023/06/24 02:44:22;;;;;;;14.17;6.10;;;16.10;99.90;;;;;;5074420;28;20271;-47
2023/06/24 02:46:48;;;;;;;15.77;6.57;;;16.10;99.90;;;;;;5074415;28;20199;-47
2023/06/24 02:49:17;;;;;;;16.77;6.30;;;16.10;99.90;;;;;;5074790;28;20200;-47
2023/06/24 02:51:44;;;;;;;20.43;6.47;;;16.10;99.90;;;;;;5074421;28;20180;-45
2023/06/24 02:54:11;;;;;;;20.90;7.03;;;16.10;99.90;;;;;;5074123;28;20214;-47
2023/06/24 02:56:41;;;;;;;14.67;6.40;;;16.00;99.90;;;;;;5074254;28;20221;-48
2023/06/24 02:59:07;;;;;;;13.73;6.10;;;16.00;99.90;;;;;;5074083;28;20171;-46
2023/06/24 03:01:38;;;;;;;20.77;6.57;;;15.90;99.90;;;;;;5074173;28;20182;-47
2023/06/24 03:04:04;;;;;;;10.27;6.20;;;15.80;99.90;;;;;;5074371;28;20278;-48
2023/06/24 03:06:31;;;;;;;15.60;5.90;;;15.80;99.90;;;;;;5074098;28;20176;-47
2023/06/24 03:08:57;;;;;;;15.73;6.03;;;15.80;99.90;;;;;;5074193;28;20207;-47
2023/06/24 03:11:25;;;;;;;14.77;6.30;;;15.80;99.90;;;;;;5073984;28;20182;-46
2023/06/24 03:13:51;;;;;;;16.63;6.00;;;15.80;99.90;;;;;;5073874;28;20203;-47
2023/06/24 03:16:16;;;;;;;18.43;7.07;;;15.80;99.90;;;;;;5074088;28;20245;-47
2023/06/24 03:18:42;;;;;;;17.63;6.30;;;15.70;99.90;;;;;;5073777;28;20180;-46
2023/06/24 03:21:09;;;;;;;21.90;6.07;;;15.70;99.90;;;;;;5073820;28;20179;-47
2023/06/24 03:23:35;;;;;;;15.63;5.97;;;15.70;99.90;;;;;;5073718;28;20639;-47
2023/06/24 03:26:02;;;;;;;15.63;6.80;;;15.70;99.90;;;;;;5073814;28;20171;-46
2023/06/24 03:28:31;;;;;;;18.93;7.00;;;15.70;99.90;;;;;;5073914;28;20183;-46
2023/06/24 03:30:58;;;;;;;17.53;6.30;;;15.70;99.90;;;;;;5073710;28;20176;-46
2023/06/24 03:33:24;;;;;;;12.97;6.40;;;15.70;99.90;;;;;;5073634;28;20179;-47
2023/06/24 03:35:50;;;;;;;13.63;6.37;;;15.70;99.90;;;;;;5073496;28;20809;-47
2023/06/24 03:38:15;;;;;;;16.07;5.90;;;15.60;99.90;;;;;;5073861;28;20171;-47
2023/06/24 03:40:41;;;;;;;13.53;6.43;;;15.60;99.90;;;;;;5073600;28;20247;-44
2023/06/24 03:43:07;;;;;;;10.97;5.50;;;15.60;99.90;;;;;;5073601;28;20540;-45
2023/06/24 03:45:32;;;;;;;10.60;6.07;;;15.50;99.90;;;;;;5074113;28;20214;-47
2023/06/24 03:47:59;;;;;;;12.70;6.77;;;15.60;99.90;;;;;;5073647;28;20179;-45
2023/06/24 03:50:24;;;;;;;18.20;6.80;;;15.60;99.90;;;;;;5073408;28;20263;-46
2023/06/24 03:52:50;;;;;;;15.87;6.30;;;15.50;99.90;;;;;;5072838;28;20237;-45
2023/06/24 03:55:15;;;;;;;11.70;6.47;;;15.50;99.90;;;;;;5073171;28;20240;-45
2023/06/24 03:57:41;;;;;;;17.17;6.60;;;15.50;99.90;;;;;;5073567;28;20184;-46
2023/06/24 04:00:13;;;;;;;10.77;6.40;;;15.50;99.90;;;;;;5073566;28;20282;-46
2023/06/24 04:02:38;;;;;;;15.40;6.60;;;15.60;99.90;;;;;;5073586;28;20164;-45
2023/06/24 04:05:06;;;;;;;17.50;7.37;;;15.60;99.90;;;;;;5073212;28;20260;-46
2023/06/24 04:07:32;;;;;;;16.17;7.13;;;15.60;99.90;;;;;;5073498;28;20195;-46
2023/06/24 04:09:57;;;;;;;16.63;7.57;;;15.60;99.90;;;;;;5073397;28;20187;-46
2023/06/24 04:12:23;;;;;;;16.43;8.00;;;15.60;99.90;;;;;;5073448;28;20190;-47
2023/06/24 04:14:49;;;;;;;16.57;7.67;;;15.70;99.90;;;;;;5073090;28;20562;-47
2023/06/24 04:17:15;;;;;;;18.93;8.40;;;15.70;99.90;;;;;;5055259;28;20180;-45
2023/06/24 04:19:41;;;;;;;21.23;7.57;;;15.80;99.90;;;;;;5073177;28;20251;-46
2023/06/24 04:22:07;;;;;;;16.97;9.00;;;15.80;99.90;;;;;;5073139;28;20179;-45
2023/06/24 04:24:33;;;;;;;17.67;8.67;;;15.90;99.90;;;;;;5073034;28;20274;-47
2023/06/24 04:26:58;;;;;;;18.40;8.60;;;15.90;99.90;;;;;;5073027;28;20639;-46
2023/06/24 04:29:24;;;;;;;19.13;9.47;;;16.00;99.90;;;;;;5073402;28;20542;-47
2023/06/24 04:31:49;;;;;;;23.13;8.83;;;16.00;99.90;;;;;;5073313;28;20210;-45
2023/06/24 04:34:15;;;;;;;17.73;9.73;;;16.10;99.90;;;;;;5072908;28;20249;-47
2023/06/24 04:36:40;;;;;;;17.63;8.73;;;16.10;99.90;;;;;;5073659;28;20246;-45
2023/06/24 04:39:06;;;;;;;15.57;9.47;;;16.20;99.90;;;;;;5073179;28;20228;-46
2023/06/24 04:41:32;;;;;;;17.07;9.90;;;16.20;99.90;;;;;;5073180;28;20179;-47
2023/06/24 04:43:58;;;;;;;16.30;8.80;;;16.30;99.90;;;;;;5072797;28;20733;-46
2023/06/24 04:46:23;;;;;;;23.13;9.80;;;16.30;99.90;;;;;;5054969;28;20184;-46
2023/06/24 04:48:50;;;;;;;15.90;9.93;;;16.40;99.90;;;;;;5073052;28;20303;-48
2023/06/24 04:51:15;;;;;;;19.37;9.53;;;16.50;99.90;;;;;;5072798;28;20262;-47
2023/06/24 04:53:41;;;;;;;11.77;10.00;;;16.50;99.90;;;;;;5072562;28;20191;-47
2023/06/24 04:56:06;;;;;;;16.83;10.00;;;16.60;99.90;;;;;;5073296;28;20211;-47
2023/06/24 04:58:32;;;;;;;15.37;10.20;;;16.60;99.90;;;;;;5073328;28;20187;-46
2023/06/24 05:00:58;;;;;;;17.83;10.17;;;16.60;99.90;;;;;;5072655;28;20198;-46
2023/06/24 05:03:24;;;;;;;15.10;10.00;;;16.60;99.90;;;;;;5073493;28;20282;-46
2023/06/24 05:05:50;;;;;;;15.53;11.23;;;16.70;99.90;;;;;;5077404;28;20258;-46
2023/06/24 05:08:15;;;;;;;16.73;11.47;;;16.80;99.90;;;;;;5076550;28;20655;-47
2023/06/24 05:10:41;;;;;;;21.03;11.97;;;16.80;99.90;;;;;;5076345;28;20211;-47
2023/06/24 05:13:07;;;;;;;16.23;11.60;;;16.90;99.90;;;;;;5076404;28;20206;-47
2023/06/24 05:15:32;;;;;;;17.13;11.23;;;17.00;99.90;;;;;;5076158;28;20568;-48
2023/06/24 05:17:58;;;;;;;17.03;10.77;;;17.00;99.90;;;;;;5076372;28;20164;-46
2023/06/24 05:20:23;;;;;;;15.10;10.17;;;17.10;99.90;;;;;;5076148;28;20186;-46
2023/06/24 05:22:49;;;;;;;14.47;9.87;;;17.20;99.90;;;;;;5076339;28;20254;-48
2023/06/24 05:25:14;;;;;;;15.87;10.33;;;17.30;99.90;;;;;;5076277;28;20285;-46
2023/06/24 05:27:40;;;;;;;17.30;10.93;;;17.40;99.90;;;;;;5076267;28;20180;-47
2023/06/24 05:30:06;;;;;;;14.33;10.30;;;17.50;99.90;;;;;;5076261;28;20188;-48
2023/06/24 05:32:32;;;;;;;16.47;11.20;;;17.50;99.90;;;;;;5075928;28;20190;-47
2023/06/24 05:34:58;;;;;;;13.43;10.30;;;17.60;99.90;;;;;;5075719;28;20207;-47
2023/06/24 05:37:23;;;;;;;16.23;10.93;;;17.70;99.90;;;;;;5076091;28;20167;-47
2023/06/24 05:39:49;;;;;;;18.63;11.37;;;17.80;99.90;;;;;;5075846;28;20252;-45
2023/06/24 05:42:14;;;;;;;15.83;11.13;;;17.90;99.90;;;;;;5075801;28;20254;-48
2023/06/24 05:44:40;;;;;;;17.77;11.03;;;18.00;99.90;;;;;;5075839;28;20191;-46
2023/06/24 05:47:05;;;;;;;14.60;11.73;;;18.10;99.90;;;;;;5075667;28;20194;-46
2023/06/24 05:49:31;;;;;;;19.77;12.33;;;18.20;99.90;;;;;;5075823;28;20175;-46
2023/06/24 05:51:57;;;;;;;18.47;11.27;;;18.30;99.90;;;;;;5075811;28;20182;-45
2023/06/24 05:54:23;;;;;;;15.17;11.27;;;18.40;99.90;;;;;;5075311;28;20219;-48
2023/06/24 05:56:49;;;;;;;18.67;11.13;;;18.50;99.90;;;;;;5075357;28;20199;-48
2023/06/24 05:59:14;;;;;;;19.63;11.87;;;18.60;99.90;;;;;;5075359;28;20180;-47
2023/06/24 06:01:40;;;;;;;16.40;10.43;;;18.70;99.90;;;;;;5075643;28;20229;-46
2023/06/24 06:04:06;;;;;;;15.13;10.57;;;18.80;99.90;;;;;;5075273;28;20278;-46
2023/06/24 06:06:31;;;;;;;19.97;11.33;;;19.00;99.90;;;;;;5075604;28;20183;-46
2023/06/24 06:08:57;;;;;;;14.27;10.23;;;19.10;99.90;;;;;;5075206;28;20214;-47
2023/06/24 06:11:23;;;;;;;13.40;9.47;;;19.30;99.90;;;;;;5075185;28;20203;-48
2023/06/24 06:13:49;;;;;;;12.30;10.10;;;19.50;99.90;;;;;;5075070;28;20302;-47
2023/06/24 06:16:14;;;;;;;13.63;8.83;;;19.70;99.90;;;;;;5074530;28;20676;-47
2023/06/24 06:18:40;;;;;;;11.87;9.63;;;19.90;99.90;;;;;;5075013;28;20711;-47
2023/06/24 06:21:05;;;;;;;12.97;9.03;;;20.10;99.90;;;;;;5075217;28;20203;-48
2023/06/24 06:23:31;;;;;;;11.83;9.10;;;20.30;99.90;;;;;;5075187;28;20179;-48
2023/06/24 06:25:57;;;;;;;14.37;9.97;;;20.40;99.90;;;;;;5075091;28;20207;-48
2023/06/24 06:28:22;;;;;;;15.00;10.13;;;20.60;99.90;;;;;;5074836;28;20176;-48
2023/06/24 06:30:48;;;;;;;17.97;9.97;;;20.80;99.90;;;;;;5075362;28;20180;-47
2023/06/24 06:33:13;;;;;;;13.67;9.67;;;21.00;99.90;;;;;;5056804;28;20202;-47
2023/06/24 06:35:39;;;;;;;12.67;8.63;;;21.10;99.90;;;;;;5074599;28;20207;-48
2023/06/24 06:38:05;;;;;;;10.33;8.10;;;21.40;99.90;;;;;;5074625;28;20636;-47
2023/06/24 06:40:31;;;;;;;12.10;8.20;;;21.50;99.90;;;;;;5074839;28;20179;-47
2023/06/24 06:42:56;;;;;;;10.57;8.17;;;21.60;99.90;;;;;;5074748;28;20663;-47
2023/06/24 06:45:22;;;;;;;13.13;8.77;;;21.80;99.90;;;;;;5074495;28;20199;-46
2023/06/24 06:47:49;;;;;;;11.83;8.07;;;22.00;99.90;;;;;;5074360;28;20210;-49
2023/06/24 06:50:15;;;;;;;11.20;8.80;;;22.20;99.90;;;;;;5074451;28;20183;-43
2023/06/24 06:52:40;;;;;;;9.03;7.47;;;22.40;99.90;;;;;;5074654;28;20190;-45
2023/06/24 06:55:06;;;;;;;12.57;8.30;;;22.50;99.90;;;;;;5074031;28;20285;-43
2023/06/24 06:57:32;;;;;;;13.43;7.87;;;22.60;99.90;;;;;;5074269;28;20168;-42
2023/06/24 06:59:57;;;;;;;12.37;8.37;;;22.90;99.90;;;;;;5074215;28;20167;-43
2023/06/24 07:02:23;;;;;;;11.47;8.53;;;23.10;99.90;;;;;;5074440;28;20256;-43
2023/06/24 07:04:50;;;;;;;11.23;8.63;;;23.20;99.90;;;;;;5074054;28;20223;-44
2023/06/24 07:07:16;;;;;;;10.60;8.83;;;23.40;99.90;;;;;;5074081;28;20172;-42
2023/06/24 07:09:41;;;;;;;11.67;8.20;;;23.60;99.90;;;;;;5073926;28;20301;-44
2023/06/24 07:12:07;;;;;;;11.73;8.67;;;23.70;99.90;;;;;;5073987;28;20724;-42
2023/06/24 07:14:33;;;;;;;15.57;8.47;;;23.90;99.90;;;;;;5074166;28;20596;-44
2023/06/24 07:16:59;;;;;;;16.90;8.60;;;24.00;99.90;;;;;;5073790;28;20203;-44
2023/06/24 07:19:24;;;;;;;14.53;8.23;;;24.10;99.90;;;;;;5073858;28;20250;-41
2023/06/24 07:21:50;;;;;;;12.90;8.77;;;24.10;99.90;;;;;;5073826;28;20229;-43
2023/06/24 07:24:16;;;;;;;13.77;8.40;;;24.20;99.90;;;;;;5073839;28;20200;-43
2023/06/24 07:26:42;;;;;;;11.30;8.27;;;24.40;99.90;;;;;;5073975;28;20183;-43
2023/06/24 07:29:08;;;;;;;13.87;8.50;;;24.40;99.90;;;;;;5073939;28;20218;-44
2023/06/24 07:31:35;;;;;;;13.17;8.73;;;24.50;99.90;;;;;;5073670;28;20641;-45
2023/06/24 07:34:00;;;;;;;12.17;8.67;;;24.70;99.90;;;;;;5073541;28;20199;-43
2023/06/24 07:36:26;;;;;;;12.63;8.90;;;24.80;99.90;;;;;;5073543;28;20204;-41
2023/06/24 07:38:52;;;;;;;10.70;8.23;;;25.00;99.90;;;;;;5073911;28;20230;-44
2023/06/24 07:41:17;;;;;;;10.43;8.23;;;25.10;99.90;;;;;;5073591;28;20180;-44
2023/06/24 07:43:43;;;;;;;13.10;9.33;;;25.20;99.90;;;;;;5073770;28;20251;-43
2023/06/24 07:46:09;;;;;;;10.50;8.13;;;25.10;99.90;;;;;;5073491;28;20602;-44
2023/06/24 07:48:34;;;;;;;11.20;7.47;;;25.20;99.90;;;;;;5073819;28;20184;-45
2023/06/24 07:51:00;;;;;;;11.67;7.13;;;25.30;99.90;;;;;;5073583;28;20652;-43
2023/06/24 07:53:26;;;;;;;11.57;7.50;;;25.60;99.90;;;;;;5073289;28;20207;-44
2023/06/24 07:55:51;;;;;;;9.30;7.50;;;25.80;99.90;;;;;;5073424;28;20340;-43
2023/06/24 07:58:19;;;;;;;8.60;7.63;;;25.80;99.90;;;;;;5073692;28;20229;-45
2023/06/24 08:00:44;;;;;;;12.63;7.50;;;25.90;99.90;;;;;;5073798;28;20175;-44
2023/06/24 08:03:10;;;;;;;10.27;6.77;;;26.00;99.90;;;;;;5073666;28;20178;-45
2023/06/24 08:05:36;;;;;;;9.73;8.10;;;26.10;99.90;;;;;;5073690;28;20202;-43
2023/06/24 08:08:01;;;;;;;11.33;7.97;;;26.30;99.90;;;;;;5073615;28;20186;-44
2023/06/24 08:10:27;;;;;;;11.27;7.30;;;26.40;99.90;;;;;;5073484;28;20172;-44
2023/06/24 08:12:52;;;;;;;8.63;6.80;;;26.40;99.90;;;;;;5056252;28;20282;-44
2023/06/24 08:15:18;;;;;;;10.63;7.83;;;26.20;99.90;;;;;;5055825;28;20261;-44
2023/06/24 08:17:43;;;;;;;12.50;6.77;;;26.20;99.90;;;;;;5073553;28;20254;-44
2023/06/24 08:20:10;;;;;;;9.03;6.13;;;26.40;99.90;;;;;;5073242;28;20172;-45
2023/06/24 08:22:35;;;;;;;12.60;6.90;;;26.60;99.90;;;;;;5073154;28;20644;-45
2023/06/24 08:25:01;;;;;;;11.97;6.40;;;26.70;99.90;;;;;;5072895;28;20202;-43
2023/06/24 08:27:26;;;;;;;13.00;7.30;;;26.90;99.90;;;;;;5073382;28;20188;-45
2023/06/24 08:29:52;;;;;;;8.80;6.40;;;26.90;99.90;;;;;;5073385;28;20175;-46
2023/06/24 08:32:17;;;;;;;7.70;6.70;;;26.90;99.90;;;;;;5072959;28;20167;-44
2023/06/24 08:34:43;;;;;;;9.60;6.53;;;27.00;99.90;;;;;;5073020;28;20195;-43
2023/06/24 08:37:09;;;;;;;9.73;7.07;;;27.00;99.90;;;;;;5073192;28;20259;-43
2023/06/24 08:39:35;;;;;;;10.47;6.60;;;27.10;99.90;;;;;;5075550;28;20179;-44
2023/06/24 08:42:00;;;;;;;10.50;6.67;;;27.10;99.90;;;;;;5077180;28;20191;-44
2023/06/24 08:44:26;;;;;;;11.13;6.30;;;27.10;99.90;;;;;;5076800;28;20210;-44
2023/06/24 08:46:52;;;;;;;9.47;6.57;;;27.10;99.90;;;;;;5076826;28;20180;-45
2023/06/24 08:49:23;;;;;;;13.60;6.47;;;27.30;99.90;;;;;;5076799;28;20176;-44
2023/06/24 08:51:54;;;;;;;9.33;6.07;;;27.30;99.90;;;;;;5077205;28;20650;-43
2023/06/24 08:54:22;;;;;;;12.37;6.47;;;27.40;99.90;;;;;;5076638;28;20231;-44
2023/06/24 08:56:47;;;;;;;8.23;5.97;;;27.60;99.90;;;;;;5076755;28;20219;-44
2023/06/24 08:59:19;;;;;;;8.87;6.77;;;27.70;99.90;;;;;;5077132;28;20171;-44
2023/06/24 09:01:45;;;;;;;8.45;6.43;;;27.70;99.90;;;;;;5076778;28;20156;-45
2023/06/24 09:04:11;;;;;;;7.65;6.35;;;27.80;99.90;;;;;;5076730;28;20200;-45
2023/06/24 09:06:37;;;;;;;13.30;7.00;;;27.90;99.90;;;;;;5076739;28;20266;-45
2023/06/24 09:09:02;;;;;;;9.93;6.80;;;27.90;99.90;;;;;;5076374;28;20180;-43
2023/06/24 09:11:28;;;;;;;12.60;6.93;;;27.80;99.90;;;;;;5076348;28;20183;-45
2023/06/24 09:13:58;;;;;;;9.05;6.80;;;27.80;99.90;;;;;;5076150;28;20203;-43
2023/06/24 09:16:24;;;;;;;13.93;7.28;;;27.90;99.90;;;;;;5076084;28;20208;-44
2023/06/24 09:18:51;;;;;;;9.05;6.65;;;27.90;99.90;;;;;;5076205;28;20171;-45
2023/06/24 09:21:24;;;;;;;8.00;6.35;;;28.00;99.90;;;;;;5076433;28;20179;-45
2023/06/24 09:23:54;;;;;;;7.38;5.95;;;28.00;99.90;;;;;;5076346;28;20233;-46
2023/06/24 09:26:24;;;;;;;9.25;6.45;;;28.00;99.90;;;;;;5076385;28;20209;-44
2023/06/24 09:28:49;;;;;;;9.13;6.10;;;28.00;99.90;;;;;;5075988;28;20541;-43
2023/06/24 09:31:15;;;;;;;8.35;6.28;;;28.20;99.90;;;;;;5076045;28;20201;-44
2023/06/24 09:33:41;;;;;;;8.80;5.90;;;28.20;99.90;;;;;;5075918;28;20183;-44
2023/06/24 09:36:10;;;;;;;7.35;6.00;;;28.30;99.90;;;;;;5076365;28;20249;-45
2023/06/24 09:38:37;;;;;;;8.93;6.70;;;28.40;99.90;;;;;;5076174;28;20262;-45
2023/06/24 09:41:04;;;;;;;8.43;5.78;;;28.50;99.90;;;;;;5076087;28;20253;-45
2023/06/24 09:43:43;;;;;;;5.10;4.25;;;28.50;99.90;;;;;;5076071;28;20640;-46
2023/06/24 09:46:09;;;;;;;7.18;4.53;;;28.50;99.90;;;;;;5076049;28;20289;-45
2023/06/24 09:48:35;;;;;;;5.93;3.60;;;28.50;99.90;;;;;;5075615;28;20652;-46
2023/06/24 09:51:02;;;;;;;5.43;3.80;;;28.40;99.90;;;;;;5074618;28;20187;-45
2023/06/24 09:53:31;;;;;;;12.70;3.70;;;28.40;99.90;;;;;;5075651;28;20237;-44
2023/06/24 09:55:59;;;;;;;4.20;3.33;;;28.40;99.90;;;;;;5075758;28;20199;-45
2023/06/24 09:58:26;;;;;;;4.40;3.10;;;28.40;99.90;;;;;;5100971;22;20321;-45
2023/06/24 10:00:52;;;;;;;3.92;3.03;;;28.40;99.90;;;;;;5096118;28;20228;-44
2023/06/24 10:03:18;;;;;;;3.30;3.00;;;28.40;99.90;;;;;;5095562;28;20167;-44
2023/06/24 10:05:44;;;;;;;3.35;3.00;;;28.40;99.90;;;;;;5095496;28;20194;-44
2023/06/24 10:08:13;;;;;;;3.58;3.08;;;28.40;99.90;;;;;;5095456;28;20171;-44
2023/06/24 10:10:39;;;;;;;5.18;2.72;;;28.50;99.90;;;;;;5095599;28;20232;-45
2023/06/24 10:13:06;;;;;;;4.28;2.78;;;28.50;99.90;;;;;;5095663;28;20183;-44
2023/06/24 10:15:32;;;;;;;4.22;2.60;;;28.60;99.90;;;;;;5095504;28;20302;-46
2023/06/24 10:18:02;;;;;;;5.60;2.33;;;28.70;99.90;;;;;;5077217;28;20632;-45
2023/06/24 10:20:28;;;;;;;3.15;2.42;;;28.80;99.90;;;;;;5095539;28;20246;-46
2023/06/24 10:22:54;;;;;;;4.63;2.55;;;29.00;99.90;;;;;;5095197;28;20202;-45
2023/06/24 10:25:21;;;;;;;5.03;2.70;;;29.20;99.90;;;;;;5095104;28;20202;-46
2023/06/24 10:27:53;;;;;;;2.63;2.22;;;29.20;99.90;;;;;;5095106;28;20171;-45
2023/06/24 10:30:20;;;;;;;5.10;2.38;;;29.30;99.90;;;;;;5095465;28;20689;-44
2023/06/24 10:32:51;;;;;;;4.22;2.28;;;29.50;99.90;;;;;;5095003;28;20179;-44
2023/06/24 10:35:30;;;;;;;2.65;2.10;;;29.50;99.90;;;;;;5096157;28;20608;-43
2023/06/24 10:38:00;;;;;;;2.50;2.30;;;29.50;99.90;;;;;;5095960;28;20187;-45
2023/06/24 10:40:43;;;;;;;3.85;2.70;;;29.50;99.90;;;;;;5095446;28;20174;-45
2023/06/24 10:43:29;;;;;;;4.72;2.33;;;29.50;99.90;;;;;;5095140;28;20164;-44
2023/06/24 10:45:57;;;;;;;3.97;2.70;;;29.60;99.90;;;;;;5094969;28;20281;-44
2023/06/24 10:48:23;;;;;;;3.38;2.65;;;29.60;99.90;;;;;;5094756;28;20548;-46
2023/06/24 10:50:49;;;;;;;5.00;2.95;;;29.60;99.90;;;;;;5096263;28;20175;-46
2023/06/24 10:53:15;;;;;;;2.80;2.47;;;29.50;99.90;;;;;;5094622;28;20186;-46
2023/06/24 10:55:43;;;;;;;2.65;2.45;;;29.30;99.90;;;;;;5094527;28;20206;-45
2023/06/24 10:58:11;;;;;;;4.53;2.78;;;29.30;99.90;;;;;;5094472;28;20190;-44
2023/06/24 11:00:36;;;;;;;5.05;2.60;;;29.40;99.90;;;;;;5094546;28;20662;-44
2023/06/24 11:03:09;;;;;;;3.05;2.75;;;29.60;99.90;;;;;;5094178;28;20187;-45
2023/06/24 11:05:41;;;;;;;2.78;2.30;;;29.70;99.90;;;;;;5094429;28;20283;-46
2023/06/24 11:08:07;;;;;;;3.10;2.72;;;29.80;99.90;;;;;;5077126;28;20167;-46
2023/06/24 11:10:32;;;;;;;4.63;2.60;;;29.90;99.90;;;;;;5094345;28;20262;-46
2023/06/24 11:13:05;;;;;;;2.97;2.58;;;30.00;99.90;;;;;;5094256;28;20304;-45
2023/06/24 11:15:32;;;;;;;2.85;2.10;;;29.90;99.90;;;;;;5094136;28;20207;-46
2023/06/24 11:17:57;;;;;;;4.93;2.88;;;29.80;99.90;;;;;;5094127;28;20178;-45
2023/06/24 11:20:23;;;;;;;3.05;2.67;;;29.80;99.90;;;;;;5094427;28;20171;-46
2023/06/24 11:22:49;;;;;;;2.90;2.70;;;29.80;99.90;;;;;;5094659;28;20174;-46
2023/06/24 11:25:19;;;;;;;2.60;2.40;;;30.00;99.90;;;;;;5094276;28;20292;-45
2023/06/24 11:27:45;;;;;;;3.85;2.28;;;30.10;99.90;;;;;;5093988;28;20260;-44
2023/06/24 11:30:12;;;;;;;2.20;2.00;;;30.20;99.90;;;;;;5094013;28;20230;-46
2023/06/24 11:32:39;;;;;;;2.35;1.95;;;30.20;99.90;;;;;;5093949;28;20575;-45
2023/06/24 11:35:10;;;;;;;2.90;2.33;;;30.10;99.90;;;;;;5093756;28;20199;-44
2023/06/24 11:37:36;;;;;;;2.80;2.22;;;30.10;99.90;;;;;;5075703;28;20185;-45
2023/06/24 11:40:06;;;;;;;3.35;2.10;;;30.20;99.90;;;;;;5094145;28;20171;-45
2023/06/24 11:42:44;;;;;;;3.08;2.22;;;30.30;99.90;;;;;;5093735;28;20178;-46
2023/06/24 11:45:12;;;;;;;2.95;2.38;;;30.30;99.90;;;;;;5093983;28;20228;-46
2023/06/24 11:47:39;;;;;;;3.05;1.70;;;30.30;99.90;;;;;;5093648;28;20163;-46
2023/06/24 11:50:07;;;;;;;1.95;1.50;;;30.20;99.90;;;;;;5075664;28;20182;-45
2023/06/24 11:52:48;;;;;;;1.90;1.67;;;30.30;99.90;;;;;;5093845;28;20273;-45
2023/06/24 11:55:23;;;;;;;2.58;1.65;;;30.50;99.90;;;;;;5093470;28;20600;-51
2023/06/24 11:58:04;;;;;;;2.10;1.70;;;30.70;99.90;;;;;;5075351;28;20622;-52
2023/06/24 12:00:38;;;;;;;5.57;2.17;;;30.90;99.90;;;;;;5093774;28;20213;-51
2023/06/24 12:03:06;;;;;;;10.38;2.28;;;30.90;99.90;;;;;;5093541;28;20197;-51
2023/06/24 12:05:34;;;;;;;2.47;1.90;;;31.00;99.90;;;;;;5093397;28;20190;-51
2023/06/24 12:08:06;;;;;;;1.80;1.70;;;31.10;99.90;;;;;;5093727;28;20186;-52
2023/06/24 12:10:33;;;;;;;2.50;1.83;;;31.20;99.90;;;;;;5093376;28;20673;-52
2023/06/24 12:13:03;;;;;;;2.13;1.92;;;31.20;99.90;;;;;;5092802;28;20198;-51
2023/06/24 12:15:29;;;;;;;2.15;1.80;;;31.20;99.90;;;;;;5093170;28;20213;-50
2023/06/24 12:17:55;;;;;;;2.45;1.85;;;31.30;99.90;;;;;;5093436;28;20175;-51
2023/06/24 12:20:21;;;;;;;2.88;2.33;;;31.20;99.90;;;;;;5093332;28;20542;-51
2023/06/24 12:22:48;;;;;;;1.75;1.63;;;31.10;99.90;;;;;;5093462;28;20175;-51
2023/06/24 12:25:14;;;;;;;2.05;1.88;;;31.10;99.90;;;;;;5093180;28;20195;-52
2023/06/24 12:27:42;;;;;;;1.75;1.52;;;31.20;99.90;;;;;;5093270;28;20170;-52
2023/06/24 12:30:08;;;;;;;1.80;1.70;;;31.30;99.90;;;;;;5093161;28;20217;-52
2023/06/24 12:32:34;;;;;;;3.45;1.65;;;31.50;99.90;;;;;;5093454;28;20198;-52
2023/06/24 12:35:00;;;;;;;151.95;136.55;;;31.70;99.90;;;;;;5092998;28;20191;-51
2023/06/24 12:37:28;;;;;;;7.10;4.72;;;31.70;99.90;;;;;;5093101;28;20171;-51
2023/06/24 12:39:56;;;;;;;3.47;2.38;;;31.80;99.90;;;;;;5093073;28;20232;-51